createdAt,value
2023-03-16T00:00:13.868Z,2.60
2023-03-16T00:02:42.450Z,2.40
2023-03-16T00:05:13.930Z,2.67
2023-03-16T00:07:43.075Z,2.73
2023-03-16T00:10:12.652Z,2.90
2023-03-16T00:12:43.693Z,2.57
2023-03-16T00:15:12.503Z,2.70
2023-03-16T00:17:40.609Z,2.53
2023-03-16T00:20:09.948Z,2.67
2023-03-16T00:22:39.341Z,2.73
2023-03-16T00:25:08.576Z,2.40
2023-03-16T00:27:36.789Z,2.93
2023-03-16T00:30:49.044Z,2.90
2023-03-16T00:33:44.062Z,2.80
2023-03-16T00:37:17.561Z,3.00
2023-03-16T00:44:11.552Z,2.63
2023-03-16T01:05:28.626Z,2.93
2023-03-16T01:21:50.167Z,2.87
2023-03-16T01:27:51.746Z,2.70
2023-03-16T01:31:08.448Z,2.63
2023-03-16T01:33:55.096Z,3.23
2023-03-16T01:37:28.747Z,2.57
2023-03-16T01:40:47.081Z,2.67
2023-03-16T01:44:18.415Z,2.57
2023-03-16T01:47:33.277Z,3.00
2023-03-16T02:02:15.545Z,2.97
2023-03-16T02:05:17.528Z,2.43
2023-03-16T02:07:54.946Z,2.83
2023-03-16T02:14:45.804Z,2.50
2023-03-16T02:18:55.623Z,2.30
2023-03-16T02:21:35.516Z,2.63
2023-03-16T02:24:28.558Z,2.63
2023-03-16T02:27:37.540Z,2.47
2023-03-16T02:31:21.150Z,2.60
2023-03-16T02:34:55.600Z,2.63
2023-03-16T02:38:04.991Z,2.50
2023-03-16T02:41:10.451Z,2.57
2023-03-16T02:48:09.967Z,3.00
2023-03-16T02:52:51.174Z,2.70
2023-03-16T02:55:41.654Z,2.87
2023-03-16T03:02:37.641Z,2.63
2023-03-16T03:09:26.951Z,3.23
2023-03-16T03:12:40.237Z,3.17
2023-03-16T03:15:48.069Z,2.90
2023-03-16T03:19:24.629Z,3.10
2023-03-16T03:26:05.009Z,3.37
2023-03-16T03:34:02.109Z,3.20
2023-03-16T04:17:16.838Z,3.00
2023-03-16T04:20:30.040Z,3.57
2023-03-16T04:23:17.852Z,3.70
2023-03-16T04:25:49.324Z,3.90
2023-03-16T04:28:20.190Z,3.27
2023-03-16T04:30:54.643Z,3.50
2023-03-16T04:33:33.328Z,3.27
2023-03-16T04:36:03.614Z,4.00
2023-03-16T04:38:35.295Z,3.60
2023-03-16T04:41:06.903Z,3.10
2023-03-16T04:43:39.460Z,3.17
2023-03-16T04:46:22.868Z,3.70
2023-03-16T04:48:51.278Z,3.90
2023-03-16T04:51:19.666Z,3.87
2023-03-16T04:54:01.046Z,3.73
2023-03-16T04:56:35.346Z,3.77
2023-03-16T04:59:08.248Z,3.87
2023-03-16T05:02:01.000Z,3.80
2023-03-16T05:04:29.505Z,3.77
2023-03-16T05:06:57.973Z,3.70
2023-03-16T05:09:32.876Z,4.13
2023-03-16T05:12:01.177Z,3.83
2023-03-16T05:14:29.661Z,4.43
2023-03-16T05:17:14.975Z,4.40
2023-03-16T05:19:45.350Z,4.10
2023-03-16T05:22:14.742Z,4.10
2023-03-16T05:25:03.412Z,3.63
2023-03-16T05:27:32.351Z,4.50
2023-03-16T05:30:01.272Z,4.07
2023-03-16T05:32:31.733Z,4.07
2023-03-16T05:35:00.097Z,4.63
2023-03-16T05:37:28.924Z,4.07
2023-03-16T05:39:57.772Z,4.13
2023-03-16T05:42:28.052Z,4.40
2023-03-16T05:45:01.866Z,4.07
2023-03-16T05:47:37.442Z,4.07
2023-03-16T05:50:11.399Z,3.90
2023-03-16T05:52:43.123Z,3.97
2023-03-16T05:55:18.950Z,4.37
2023-03-16T05:57:53.796Z,4.20
2023-03-16T06:00:25.834Z,4.30
2023-03-16T06:03:05.029Z,3.83
2023-03-16T06:05:36.385Z,3.97
2023-03-16T06:08:05.745Z,4.30
2023-03-16T06:10:34.605Z,4.17
2023-03-16T06:13:04.989Z,3.90
2023-03-16T06:15:33.323Z,4.10
2023-03-16T06:18:03.887Z,4.40
2023-03-16T06:20:32.294Z,3.97
2023-03-16T06:23:00.982Z,4.30
2023-03-16T06:25:29.448Z,3.50
2023-03-16T06:27:58.132Z,4.13
2023-03-16T06:30:28.639Z,3.87
2023-03-16T06:32:57.234Z,4.30
2023-03-16T06:35:25.597Z,3.93
2023-03-16T06:38:11.901Z,4.03
2023-03-16T06:41:06.545Z,3.93
2023-03-16T06:43:36.284Z,4.23
2023-03-16T06:46:06.905Z,3.73
2023-03-16T06:48:35.406Z,3.90
2023-03-16T06:51:04.691Z,3.70
2023-03-16T06:53:33.009Z,4.20
2023-03-16T06:56:02.408Z,3.80
2023-03-16T06:58:34.330Z,3.90
2023-03-16T07:01:04.172Z,3.63
2023-03-16T07:03:33.924Z,4.47
2023-03-16T07:06:19.235Z,4.33
2023-03-16T07:08:47.693Z,3.70
2023-03-16T07:11:16.337Z,3.50
2023-03-16T07:13:44.924Z,3.60
2023-03-16T07:16:14.663Z,4.17
2023-03-16T07:18:45.306Z,3.50
2023-03-16T07:21:16.338Z,4.00
2023-03-16T07:23:45.912Z,3.80
2023-03-16T07:26:17.529Z,3.63
2023-03-16T07:28:52.634Z,3.60
2023-03-16T07:31:21.609Z,3.63
2023-03-16T07:33:52.160Z,3.97
2023-03-16T07:36:30.277Z,3.80
2023-03-16T07:39:01.556Z,4.33
2023-03-16T07:41:32.576Z,3.93
2023-03-16T07:44:15.462Z,4.03
2023-03-16T07:46:47.902Z,3.77
2023-03-16T07:49:18.561Z,3.47
2023-03-16T07:51:48.793Z,3.90
2023-03-16T07:54:20.365Z,3.20
2023-03-16T07:56:49.965Z,3.77
2023-03-16T07:59:41.632Z,4.10
2023-03-16T08:02:14.763Z,3.90
2023-03-16T08:04:45.575Z,5.37
2023-03-16T08:07:16.913Z,4.70
2023-03-16T08:09:55.340Z,6.27
2023-03-16T08:12:30.022Z,6.77
2023-03-16T08:14:58.653Z,5.60
2023-03-16T08:17:31.173Z,5.83
2023-03-16T08:20:02.588Z,4.23
2023-03-16T08:22:31.110Z,4.60
2023-03-16T08:24:59.492Z,3.63
2023-03-16T08:27:29.642Z,3.87
2023-03-16T08:30:05.073Z,3.47
2023-03-16T08:32:35.507Z,3.70
2023-03-16T08:35:13.585Z,4.90
2023-03-16T08:37:42.634Z,3.77
2023-03-16T08:40:14.248Z,3.70
2023-03-16T08:42:44.490Z,3.83
2023-03-16T08:45:14.972Z,3.73
2023-03-16T08:47:45.855Z,3.67
2023-03-16T08:50:17.176Z,4.37
2023-03-16T08:52:45.512Z,4.20
2023-03-16T08:55:14.041Z,3.87
2023-03-16T08:57:45.124Z,3.60
2023-03-16T09:00:15.752Z,3.78
2023-03-16T09:02:45.765Z,4.05
2023-03-16T09:05:18.404Z,3.50
2023-03-16T09:07:48.881Z,4.17
2023-03-16T09:10:19.067Z,3.90
2023-03-16T09:12:48.502Z,3.90
2023-03-16T09:15:17.824Z,3.88
2023-03-16T09:17:46.485Z,4.67
2023-03-16T09:20:22.857Z,4.70
2023-03-16T09:22:55.653Z,4.37
2023-03-16T09:25:26.466Z,4.20
2023-03-16T09:27:55.761Z,4.30
2023-03-16T09:30:24.280Z,4.32
2023-03-16T09:32:52.916Z,3.92
2023-03-16T09:35:22.902Z,4.35
2023-03-16T09:38:05.629Z,3.95
2023-03-16T09:40:36.149Z,4.03
2023-03-16T09:43:36.165Z,4.28
2023-03-16T09:46:11.260Z,4.30
2023-03-16T09:48:41.209Z,4.00
2023-03-16T09:51:23.289Z,4.25
2023-03-16T09:53:58.338Z,4.00
2023-03-16T09:56:35.375Z,4.80
2023-03-16T09:59:10.598Z,3.97
2023-03-16T10:01:48.351Z,4.85
2023-03-16T10:04:28.229Z,4.30
2023-03-16T10:07:06.548Z,4.50
2023-03-16T10:09:38.958Z,4.60
2023-03-16T10:12:09.153Z,4.68
2023-03-16T10:14:45.826Z,4.47
2023-03-16T10:17:18.143Z,5.57
2023-03-16T10:19:51.384Z,5.18
2023-03-16T10:22:26.656Z,4.40
2023-03-16T10:25:05.740Z,4.38
2023-03-16T10:27:36.691Z,6.40
2023-03-16T10:30:15.031Z,6.25
2023-03-16T10:32:43.542Z,5.22
2023-03-16T10:35:21.475Z,6.90
2023-03-16T10:37:52.978Z,5.15
2023-03-16T10:40:22.319Z,4.97
2023-03-16T10:42:50.780Z,5.03
2023-03-16T10:45:30.656Z,5.00
2023-03-16T10:48:07.978Z,4.45
2023-03-16T10:50:36.589Z,4.50
2023-03-16T10:53:06.300Z,4.57
2023-03-16T10:55:43.752Z,4.40
2023-03-16T10:58:13.406Z,4.97
2023-03-16T11:00:45.417Z,7.40
2023-03-16T11:03:24.359Z,17.02
2023-03-16T11:06:00.744Z,6.65
2023-03-16T11:08:34.115Z,6.53
2023-03-16T11:11:09.799Z,5.45
2023-03-16T11:13:40.685Z,5.10
2023-03-16T11:16:23.194Z,5.53
2023-03-16T11:18:56.588Z,5.10
2023-03-16T11:21:36.381Z,5.40
2023-03-16T11:24:12.179Z,5.35
2023-03-16T11:26:43.027Z,7.30
2023-03-16T11:29:20.420Z,7.35
2023-03-16T11:31:53.590Z,5.63
2023-03-16T11:34:28.392Z,14.45
2023-03-16T11:36:59.975Z,8.27
2023-03-16T11:39:46.258Z,6.55
2023-03-16T11:42:36.158Z,6.15
2023-03-16T11:45:20.345Z,5.88
2023-03-16T11:48:10.999Z,5.60
2023-03-16T11:50:51.824Z,5.40
2023-03-16T11:53:32.881Z,5.63
2023-03-16T11:56:13.055Z,5.22
2023-03-16T11:58:53.533Z,5.85
2023-03-16T12:01:29.720Z,5.90
2023-03-16T12:04:20.610Z,5.13
2023-03-16T12:07:02.442Z,5.65
2023-03-16T12:09:55.988Z,5.18
2023-03-16T12:12:33.048Z,4.95
2023-03-16T12:15:18.505Z,5.30
2023-03-16T12:17:51.084Z,5.80
2023-03-16T12:20:24.789Z,5.65
2023-03-16T12:22:59.504Z,5.97
2023-03-16T12:25:31.973Z,5.75
2023-03-16T12:28:05.775Z,6.07
2023-03-16T12:30:44.008Z,5.80
2023-03-16T12:33:19.744Z,4.82
2023-03-16T12:35:56.591Z,5.88
2023-03-16T12:38:38.781Z,5.45
2023-03-16T12:41:18.096Z,5.53
2023-03-16T12:44:03.078Z,5.82
2023-03-16T12:46:37.099Z,5.15
2023-03-16T12:49:07.392Z,5.38
2023-03-16T12:51:37.114Z,5.97
2023-03-16T12:54:06.261Z,4.50
2023-03-16T12:56:36.823Z,4.60
2023-03-16T12:59:08.000Z,4.72
2023-03-16T13:01:42.528Z,4.78
2023-03-16T13:04:15.212Z,5.03
2023-03-16T13:06:48.439Z,4.75
2023-03-16T13:09:21.658Z,4.68
2023-03-16T13:11:51.304Z,4.47
2023-03-16T13:14:36.401Z,4.50
2023-03-16T13:17:07.142Z,4.80
2023-03-16T13:19:38.004Z,4.40
2023-03-16T13:22:20.966Z,5.68
2023-03-16T13:24:53.902Z,5.60
2023-03-16T13:27:25.182Z,4.15
2023-03-16T13:29:57.439Z,3.70
2023-03-16T13:32:29.641Z,4.90
2023-03-16T13:35:00.713Z,4.15
2023-03-16T13:37:30.472Z,5.35
2023-03-16T13:40:00.577Z,4.25
2023-03-16T13:42:31.604Z,4.88
2023-03-16T13:45:14.247Z,4.90
2023-03-16T13:47:44.261Z,5.65
2023-03-16T13:50:13.875Z,4.13
2023-03-16T13:52:44.629Z,4.40
2023-03-16T13:55:18.184Z,4.13
2023-03-16T13:57:47.526Z,4.18
2023-03-16T14:00:20.319Z,4.43
2023-03-16T14:02:52.521Z,4.65
2023-03-16T14:05:24.583Z,6.43
2023-03-16T14:07:53.285Z,4.40
2023-03-16T14:10:21.993Z,3.95
2023-03-16T14:12:54.045Z,3.90
2023-03-16T14:15:26.085Z,4.05
2023-03-16T14:18:14.121Z,3.92
2023-03-16T14:20:42.806Z,4.28
2023-03-16T14:23:20.189Z,4.03
2023-03-16T14:25:49.734Z,5.70
2023-03-16T14:28:20.269Z,4.18
2023-03-16T14:30:54.459Z,4.40
2023-03-16T14:33:29.924Z,4.40
2023-03-16T14:35:59.682Z,4.38
2023-03-16T14:38:33.840Z,3.38
2023-03-16T14:41:07.634Z,4.07
2023-03-16T14:43:38.511Z,3.40
2023-03-16T14:46:09.088Z,3.90
2023-03-16T14:48:37.498Z,4.07
2023-03-16T14:51:06.402Z,3.47
2023-03-16T14:53:34.425Z,4.13
2023-03-16T14:56:02.541Z,5.07
2023-03-16T14:58:30.611Z,4.53
2023-03-16T15:00:59.603Z,4.60
2023-03-16T15:03:34.109Z,4.32
2023-03-16T15:06:02.843Z,3.83
2023-03-16T15:08:33.721Z,3.58
2023-03-16T15:11:05.783Z,3.55
2023-03-16T15:13:53.189Z,3.65
2023-03-16T15:16:23.121Z,3.88
2023-03-16T15:18:53.021Z,5.53
2023-03-16T15:21:24.223Z,4.28
2023-03-16T15:23:52.305Z,3.80
2023-03-16T15:26:26.234Z,3.88
2023-03-16T15:28:54.510Z,3.67
2023-03-16T15:31:23.211Z,3.42
2023-03-16T15:33:52.732Z,3.60
2023-03-16T15:36:22.889Z,3.90
2023-03-16T15:38:52.987Z,4.40
2023-03-16T15:41:21.293Z,6.00
2023-03-16T15:43:49.390Z,5.43
2023-03-16T15:46:17.953Z,4.38
2023-03-16T15:48:45.986Z,3.88
2023-03-16T15:51:22.754Z,4.03
2023-03-16T15:53:54.484Z,4.55
2023-03-16T15:56:29.274Z,4.20
2023-03-16T15:59:00.448Z,3.78
2023-03-16T16:01:34.884Z,3.63
2023-03-16T16:04:03.485Z,3.60
2023-03-16T16:06:33.003Z,3.83
2023-03-16T16:09:01.728Z,3.83
2023-03-16T16:11:29.893Z,5.43
2023-03-16T16:13:59.386Z,3.60
2023-03-16T16:16:29.716Z,5.53
2023-03-16T16:18:58.067Z,7.28
2023-03-16T16:21:29.028Z,6.97
2023-03-16T16:23:58.630Z,4.40
2023-03-16T16:26:45.218Z,14.48
2023-03-16T16:29:17.071Z,9.88
2023-03-16T16:31:45.751Z,6.13
2023-03-16T16:34:15.504Z,8.35
2023-03-16T16:36:43.627Z,7.50
2023-03-16T16:39:13.084Z,7.80
2023-03-16T16:41:43.262Z,14.35
2023-03-16T16:44:17.991Z,8.23
2023-03-16T16:46:47.121Z,11.15
2023-03-16T16:49:17.182Z,8.57
2023-03-16T16:51:45.316Z,10.20
2023-03-16T16:54:18.141Z,9.35
2023-03-16T16:56:46.686Z,8.30
2023-03-16T16:59:18.195Z,4.85
2023-03-16T17:01:47.043Z,3.75
2023-03-16T17:04:17.361Z,3.65
2023-03-16T17:06:46.873Z,3.55
2023-03-16T17:09:16.300Z,3.97
2023-03-16T17:11:45.077Z,4.07
2023-03-16T17:14:17.970Z,4.65
2023-03-16T17:16:47.625Z,3.90
2023-03-16T17:19:21.691Z,3.72
2023-03-16T17:21:50.242Z,3.72
2023-03-16T17:24:19.905Z,3.38
2023-03-16T17:26:49.890Z,3.78
2023-03-16T17:29:22.541Z,3.13
2023-03-16T17:31:51.467Z,3.55
2023-03-16T17:34:22.437Z,3.28
2023-03-16T17:36:51.198Z,3.60
2023-03-16T17:39:22.532Z,3.38
2023-03-16T17:41:53.436Z,3.33
2023-03-16T17:44:21.677Z,3.90
2023-03-16T17:46:50.079Z,3.70
2023-03-16T17:49:19.994Z,4.13
2023-03-16T17:51:48.184Z,7.10
2023-03-16T17:54:16.502Z,4.85
2023-03-16T17:56:48.624Z,5.53
2023-03-16T17:59:18.968Z,5.53
2023-03-16T18:01:48.258Z,5.53
2023-03-16T18:04:21.178Z,4.53
2023-03-16T18:06:49.510Z,4.32
2023-03-16T18:09:18.808Z,4.43
2023-03-16T18:11:50.438Z,9.27
2023-03-16T18:14:26.447Z,10.13
2023-03-16T18:16:55.655Z,5.72
2023-03-16T18:19:25.838Z,5.80
2023-03-16T18:21:54.765Z,7.47
2023-03-16T18:24:26.707Z,4.65
2023-03-16T18:26:56.556Z,4.45
2023-03-16T18:29:24.692Z,5.03
2023-03-16T18:31:55.567Z,8.00
2023-03-16T18:34:25.298Z,4.90
2023-03-16T18:36:54.984Z,6.15
2023-03-16T18:39:23.255Z,5.50
2023-03-16T18:41:51.337Z,5.95
2023-03-16T18:44:23.397Z,4.47
2023-03-16T18:46:52.957Z,4.22
2023-03-16T18:49:23.902Z,4.22
2023-03-16T18:51:54.624Z,16.13
2023-03-16T18:54:24.891Z,15.50
2023-03-16T18:56:53.915Z,7.55
2023-03-16T18:59:23.393Z,4.88
2023-03-16T19:01:52.487Z,4.40
2023-03-16T19:04:23.869Z,4.30
2023-03-16T19:06:53.716Z,4.20
2023-03-16T19:09:26.643Z,4.18
2023-03-16T19:11:54.973Z,4.60
2023-03-16T19:14:26.739Z,4.20
2023-03-16T19:16:56.155Z,4.00
2023-03-16T19:19:25.180Z,4.10
2023-03-16T19:21:55.148Z,4.20
2023-03-16T19:24:26.790Z,3.92
2023-03-16T19:26:55.128Z,3.80
2023-03-16T19:29:29.919Z,4.05
2023-03-16T19:31:58.745Z,4.05
2023-03-16T19:34:27.225Z,3.50
2023-03-16T19:36:55.354Z,4.18
2023-03-16T19:39:23.385Z,4.18
2023-03-16T19:41:56.622Z,4.20
2023-03-16T19:44:27.889Z,3.92
2023-03-16T19:46:56.497Z,4.20
2023-03-16T19:49:27.075Z,4.13
2023-03-16T19:51:56.332Z,3.67
2023-03-16T19:54:26.093Z,3.97
2023-03-16T19:56:55.960Z,3.50
2023-03-16T19:59:29.869Z,3.85
2023-03-16T20:01:57.949Z,3.80
2023-03-16T20:04:27.836Z,3.53
2023-03-16T20:06:55.969Z,3.55
2023-03-16T20:09:24.094Z,3.60
2023-03-16T20:11:52.169Z,4.18
2023-03-16T20:14:22.661Z,3.70
2023-03-16T20:16:53.187Z,4.10
2023-03-16T20:19:22.414Z,4.63
2023-03-16T20:21:50.590Z,4.13
2023-03-16T20:24:20.706Z,3.90
2023-03-16T20:26:51.567Z,4.20
2023-03-16T20:29:25.258Z,4.10
2023-03-16T20:31:54.970Z,3.83
2023-03-16T20:34:25.807Z,4.20
2023-03-16T20:36:54.481Z,3.67
2023-03-16T20:39:22.622Z,3.97
2023-03-16T20:41:51.637Z,3.53
2023-03-16T20:44:23.601Z,3.53
2023-03-16T20:46:51.733Z,3.80
2023-03-16T20:49:34.149Z,4.10
2023-03-16T20:52:02.286Z,4.22
2023-03-16T20:54:30.313Z,4.30
2023-03-16T20:56:58.341Z,3.85
2023-03-16T20:59:28.241Z,4.05
2023-03-16T21:01:56.465Z,3.92
2023-03-16T21:04:27.868Z,4.13
2023-03-16T21:06:58.161Z,4.75
2023-03-16T21:09:26.517Z,4.05
2023-03-16T21:11:54.707Z,3.92
2023-03-16T21:14:24.997Z,4.03
2023-03-16T21:16:59.468Z,4.03
2023-03-16T21:19:27.658Z,4.10
2023-03-16T21:21:57.090Z,3.28
2023-03-16T21:24:25.270Z,4.22
2023-03-16T21:26:53.986Z,3.97
2023-03-16T21:29:23.727Z,4.18
2023-03-16T21:31:51.942Z,4.15
2023-03-16T21:34:25.266Z,4.05
2023-03-16T21:36:53.443Z,4.20
2023-03-16T21:39:25.337Z,3.97
2023-03-16T21:41:53.906Z,4.28
2023-03-16T21:44:22.773Z,4.25
2023-03-16T21:46:51.085Z,4.40
2023-03-16T21:49:19.783Z,4.50
2023-03-16T21:51:49.803Z,4.30
2023-03-16T21:54:19.212Z,4.10
2023-03-16T21:56:48.952Z,4.28
2023-03-16T21:59:17.105Z,4.10
2023-03-16T22:02:00.777Z,3.75
2023-03-16T22:04:30.024Z,4.18
2023-03-16T22:06:58.066Z,4.13
2023-03-16T22:09:30.098Z,4.10
2023-03-16T22:11:59.726Z,4.65
2023-03-16T22:14:28.214Z,4.28
2023-03-16T22:16:56.628Z,4.30
2023-03-16T22:19:26.348Z,4.40
2023-03-16T22:21:56.641Z,4.22
2023-03-16T22:24:27.162Z,4.50
2023-03-16T22:26:55.772Z,4.38
2023-03-16T22:29:28.119Z,4.68
2023-03-16T22:31:59.373Z,4.53
2023-03-16T22:34:31.390Z,4.35
2023-03-16T22:37:00.880Z,4.40
2023-03-16T22:39:32.440Z,4.57
2023-03-16T22:42:01.144Z,4.07
2023-03-16T22:44:30.922Z,4.15
2023-03-16T22:46:58.946Z,4.10
2023-03-16T22:49:29.029Z,4.20
2023-03-16T22:51:58.770Z,4.45
2023-03-16T22:54:29.587Z,4.55
2023-03-16T22:56:57.866Z,4.50
2023-03-16T22:59:27.816Z,4.07
2023-03-16T23:01:57.631Z,4.60
2023-03-16T23:04:30.089Z,4.22
2023-03-16T23:06:58.557Z,4.32
2023-03-16T23:09:26.855Z,4.90
2023-03-16T23:11:57.522Z,4.68
2023-03-16T23:14:30.050Z,4.28
2023-03-16T23:16:59.775Z,4.82
2023-03-16T23:19:30.810Z,5.05
2023-03-16T23:22:01.524Z,4.93
2023-03-16T23:24:29.546Z,5.03
2023-03-16T23:26:57.695Z,5.10
2023-03-16T23:29:26.257Z,4.60
2023-03-16T23:31:54.815Z,4.70
2023-03-16T23:34:26.684Z,4.57
2023-03-16T23:36:54.713Z,4.55
2023-03-16T23:39:23.251Z,4.60
2023-03-16T23:41:51.740Z,4.68
2023-03-16T23:44:22.715Z,4.65
2023-03-16T23:46:51.521Z,4.97
2023-03-16T23:49:22.894Z,4.93
2023-03-16T23:51:53.684Z,5.13
2023-03-16T23:54:24.207Z,4.88
2023-03-16T23:56:52.596Z,5.07
2023-03-16T23:59:23.372Z,5.18
